Date,TemperatureHighF,TemperatureAvgF,TemperatureLowF,DewpointHighF,DewpointAvgF,DewpointLowF,HumidityHigh,HumidityAvg,HumidityLow,PressureMaxIn,PressureMinIn,WindSpeedMaxMPH,WindSpeedAvgMPH,GustSpeedMaxMPH,PrecipitationSumIn
2013-1-1,51.4,44.8,38.1,20.2,6.0,-3.4,39,22,12,30.14,30.08,17,4,17,0.00
2013-1-2,54.9,46.9,41.5,5.0,-0.3,-5.6,16,14,12,30.11,29.99,13,4,13,0.00
2013-1-3,56.7,46.8,39.2,10.4,2.1,-4.9,29,16,12,30.16,29.99,11,2,11,0.00
2013-1-4,56.1,49.0,44.8,6.5,1.9,-0.2,20,14,12,30.14,30.05,13,3,13,0.00
2013-1-5,51.8,46.9,41.7,37.9,25.0,6.3,73,44,22,30.14,29.93,9,1,9,0.39
2013-1-6,48.6,45.6,43.5,38.4,31.0,18.2,76,59,30,30.08,29.93,14,2,14,0.04
2013-1-7,59.2,49.3,42.3,35.3,24.8,8.9,70,41,14,30.11,30.02,8,2,8,0.00
2013-1-8,61.7,52.0,46.8,28.1,17.5,5.1,46,28,11,30.11,29.99,9,2,9,0.00
2013-1-9,51.1,46.7,41.7,36.4,19.7,3.1,57,35,17,30.02,29.87,17,2,17,0.00
2013-1-10,50.2,42.8,37.9,15.9,5.2,-2.3,39,22,14,30.05,29.93,13,3,13,0.00
2013-1-11,51.8,42.6,37.8,22.2,6.6,-2.3,49,24,13,30.14,30.02,10,3,10,0.00
2013-1-12,50.7,41.7,34.7,21.2,3.6,-7.5,48,23,12,30.11,29.99,7,2,7,0.00
2013-1-13,49.5,40.5,33.6,2.3,-5.4,-9.1,16,14,12,30.14,30.02,12,3,12,0.00
2013-1-14,50.4,40.8,32.2,3.0,-5.4,-10.4,15,14,11,30.25,30.05,14,2,14,0.00
2013-1-15,52.2,43.0,36.9,4.0,-3.2,-7.9,16,14,12,30.31,30.22,9,2,9,0.00
2013-1-16,56.8,47.3,37.9,5.2,0.8,-4.2,16,14,12,30.28,30.11,13,2,13,0.00
2013-1-17,61.3,53.6,45.7,7.8,3.4,-3.7,15,13,11,30.11,29.99,14,4,14,0.00
2013-1-18,62.8,54.8,48.0,7.8,4.2,1.1,14,13,11,30.11,29.99,14,5,14,0.00
2013-1-19,61.3,56.2,52.3,7.8,4.8,0.7,13,12,11,30.11,29.99,14,4,14,0.00
2013-1-20,62.2,56.6,51.8,7.8,4.9,2.5,13,12,11,30.08,29.99,13,4,13,0.00
2013-1-21,63.9,54.3,47.3,8.2,4.2,-3.8,14,13,11,30.05,29.93,14,4,14,0.00
2013-1-22,64.2,54.8,49.6,8.6,4.5,2.4,14,13,11,29.96,29.84,13,4,13,0.00
2013-1-23,58.8,53.3,48.9,40.1,18.1,2.8,68,31,12,29.96,29.81,10,2,10,0.16
2013-1-24,57.9,53.5,49.8,40.6,32.2,25.4,69,45,29,30.08,29.90,15,3,15,0.00
2013-1-25,66.6,57.4,52.9,38.8,31.8,15.8,56,40,15,30.05,29.93,10,3,10,0.00
2013-1-26,57.7,50.9,44.1,41.7,21.3,1.7,68,36,12,29.96,29.87,15,3,15,0.00
2013-1-27,55.9,46.2,39.9,21.0,11.2,-0.2,39,26,12,30.05,29.93,12,3,12,0.00
2013-1-28,57.9,47.3,41.5,21.9,12.6,2.5,42,26,12,30.16,30.02,12,4,12,0.00
2013-1-29,58.5,49.4,42.3,19.0,11.5,2.7,38,23,12,30.22,30.14,10,2,10,0.00
2013-1-30,65.5,54.5,47.3,18.4,10.3,3.2,29,18,10,30.19,30.14,10,2,10,0.00
2013-1-31,66.0,54.3,47.1,23.2,11.7,3.7,38,20,10,30.16,30.05,11,2,11,0.00
2013-2-1,65.1,56.1,48.6,20.1,8.9,3.0,30,16,10,30.11,29.99,13,3,13,0.00
2013-2-2,59.4,50.5,46.2,43.5,29.9,10.1,68,47,19,30.19,30.08,8,1,8,0.00
2013-2-3,58.8,49.3,43.5,31.4,21.1,4.4,56,36,12,30.16,30.02,8,1,8,0.00
2013-2-4,57.6,48.8,44.8,44.1,32.4,20.8,73,54,25,30.08,29.96,6,1,6,0.00
2013-2-5,56.8,48.9,45.0,35.8,24.6,11.8,64,40,17,30.05,29.93,10,2,10,0.00
2013-2-6,58.8,48.3,42.1,25.0,15.7,2.5,49,30,12,30.08,30.02,8,2,8,0.00
2013-2-7,54.7,47.4,42.8,35.7,21.4,2.5,56,38,13,30.05,29.87,11,3,11,0.08
2013-2-8,54.5,45.8,39.7,35.8,17.3,1.7,70,37,13,29.90,29.81,10,3,10,0.00
2013-2-9,59.7,48.0,39.9,10.2,2.3,-1.6,28,15,12,29.99,29.87,10,3,10,0.00
2013-2-10,60.6,48.4,39.4,17.7,4.7,-2.0,37,17,12,30.02,29.93,8,1,8,0.00
2013-2-11,64.4,51.8,44.2,31.9,8.9,-4.7,54,20,10,30.11,29.96,11,2,11,0.00
2013-2-12,62.6,50.8,42.1,35.8,18.5,3.5,65,34,11,30.22,30.11,8,2,8,0.00
2013-2-13,61.7,49.3,42.6,43.0,23.8,4.1,68,41,11,30.22,30.08,7,1,7,0.00
2013-2-14,69.4,56.3,42.3,36.2,14.1,3.7,68,24,10,30.14,30.05,10,2,10,0.00
2013-2-15,70.5,61.4,55.9,10.7,6.8,3.9,12,11,9,30.16,30.08,14,4,14,0.00
2013-2-16,70.3,58.6,47.7,28.4,10.1,3.7,47,16,9,30.11,29.93,13,3,13,0.00
2013-2-17,61.9,50.7,44.1,37.8,23.0,3.2,63,38,11,29.96,29.87,6,1,6,0.00
2013-2-18,53.1,47.0,44.4,34.3,19.4,4.1,63,36,16,29.93,29.84,15,5,15,0.00
2013-2-19,47.7,43.3,37.9,35.0,19.0,-0.2,65,40,14,29.87,29.66,13,4,13,0.35
2013-2-20,59.0,45.8,36.9,19.2,10.5,1.5,42,26,12,29.96,29.72,9,3,11,0.00
2013-2-21,60.6,48.2,38.7,19.9,8.6,-0.2,43,22,12,30.08,29.93,15,3,15,0.00
2013-2-22,60.4,49.8,42.3,26.2,15.0,0.1,43,27,12,30.14,30.05,9,2,9,0.00
2013-2-23,58.3,49.5,43.3,35.6,12.0,-0.3,61,26,12,30.14,30.05,14,4,14,0.00
2013-2-24,63.1,50.3,42.1,16.3,3.7,-4.9,31,15,11,30.14,30.05,12,3,12,0.00
2013-2-25,63.5,51.1,42.6,34.7,16.4,3.7,58,29,11,30.16,30.05,10,2,10,0.00
2013-2-26,66.6,53.0,42.1,14.2,5.8,-0.6,29,15,10,30.08,30.02,13,3,13,0.00
2013-2-27,65.7,53.8,43.5,23.4,8.5,-0.9,35,17,10,30.25,30.08,6,1,6,0.00
2013-2-28,65.7,54.8,47.7,34.9,24.7,11.1,48,33,13,30.31,30.22,8,1,8,0.00
2013-3-1,73.2,59.7,49.6,45.5,22.1,6.0,66,30,9,30.31,30.14,8,1,8,0.00
2013-3-2,70.3,58.7,50.4,35.0,18.1,6.7,54,23,9,30.14,29.99,8,2,8,0.00
2013-3-3,61.2,51.9,47.5,46.0,32.8,14.4,78,52,16,30.02,29.96,13,4,13,0.00
2013-3-4,56.3,48.2,43.0,40.5,28.4,11.3,74,49,17,30.05,29.96,10,3,10,0.00
2013-3-5,57.2,48.7,41.7,37.1,18.3,3.4,64,34,12,29.96,29.72,16,5,16,0.16
2013-3-6,55.4,49.1,43.0,41.9,21.2,2.8,75,37,13,29.96,29.72,17,5,17,0.31
2013-3-7,56.1,48.4,42.8,37.8,21.0,2.5,64,40,12,29.90,29.72,9,1,9,0.00
2013-3-8,61.5,49.6,43.7,31.6,15.2,2.5,56,29,11,29.96,29.72,13,4,13,0.00
2013-3-9,66.9,53.1,41.5,26.5,12.9,3.1,51,25,10,30.19,29.93,9,2,9,0.00
2013-3-10,66.2,55.1,45.1,25.2,10.0,-0.1,38,18,10,30.25,30.16,11,2,11,0.00
2013-3-11,68.9,54.5,45.0,29.9,15.2,0.5,53,25,10,30.16,29.99,8,1,8,0.00
2013-3-12,70.3,56.0,46.2,48.5,26.6,7.1,72,40,9,30.05,29.99,6,1,6,0.00
2013-3-13,79.0,62.2,47.5,32.3,19.2,6.7,47,23,7,30.08,29.99,9,1,9,0.00
2013-3-14,65.3,55.6,47.8,39.4,25.2,9.3,55,33,14,30.08,29.99,7,1,7,0.00
2013-3-15,67.8,55.6,47.3,31.4,21.0,6.7,49,29,10,30.05,29.96,7,1,7,0.00
2013-3-16,68.2,55.8,46.9,49.3,22.5,3.7,73,36,10,30.05,29.93,8,2,8,0.00
2013-3-17,65.3,54.1,45.5,25.2,12.4,3.1,39,21,10,30.08,29.96,9,2,9,0.00
2013-3-18,62.8,52.1,44.6,32.6,21.3,5.5,51,33,11,30.05,29.93,9,2,9,0.00
2013-3-19,64.8,52.6,46.6,33.2,20.9,5.3,54,33,10,30.05,29.96,8,2,9,0.08
2013-3-20,57.6,53.2,49.1,50.0,38.9,12.0,84,61,18,30.05,29.96,8,2,8,0.12
2013-3-21,62.4,52.2,43.0,47.5,23.0,4.2,84,42,11,30.05,29.90,11,2,11,0.00
2013-3-22,68.0,53.9,43.2,22.5,9.9,0.4,42,19,10,30.02,29.93,11,4,11,0.00
2013-3-23,68.0,54.7,44.6,16.4,5.1,-0.2,29,14,10,30.05,29.96,9,2,9,0.00
2013-3-24,66.4,52.3,44.6,30.1,20.1,6.0,51,32,10,30.02,29.90,8,2,8,0.00
2013-3-25,57.0,49.6,45.7,34.4,24.5,8.4,61,40,15,29.93,29.84,11,3,11,0.00
2013-3-26,60.6,51.8,45.9,32.4,22.2,9.0,54,35,14,29.93,29.84,8,3,8,0.00
2013-3-27,60.1,53.2,47.5,48.6,35.0,22.9,81,52,25,29.93,29.84,10,2,10,0.00
2013-3-28,66.0,57.4,52.3,60.6,39.6,15.8,91,59,15,29.99,29.90,8,2,8,0.00
2013-3-29,75.0,59.1,51.3,37.3,22.7,6.9,56,29,8,29.99,29.93,12,3,12,0.00
2013-3-30,66.0,55.7,51.4,52.8,36.5,11.1,83,54,13,30.02,29.90,12,3,12,0.00
2013-3-31,66.0,57.5,54.0,53.0,39.3,6.7,80,56,10,29.99,29.93,8,2,8,0.28
2013-4-1,63.9,56.2,50.2,51.3,36.1,11.1,76,52,13,30.08,29.99,9,2,9,0.51
2013-4-2,63.5,54.0,47.8,45.2,32.8,21.7,68,47,21,30.11,30.02,8,2,8,0.00
2013-4-3,73.2,55.7,49.5,48.7,33.9,7.8,75,51,9,30.05,29.93,8,2,8,0.00
2013-4-4,60.4,55.8,50.4,54.2,47.7,37.3,85,75,44,30.05,29.90,11,4,11,0.43
2013-4-5,62.1,56.7,52.9,57.0,43.7,23.4,92,66,24,30.11,30.02,10,3,10,0.00
2013-4-6,60.8,55.7,52.0,54.0,43.4,27.7,85,66,30,30.14,30.08,10,3,10,0.00
2013-4-7,61.7,54.7,50.9,48.4,34.8,15.6,82,50,19,30.11,30.11,17,4,17,0.00
2013-4-8,68.0,53.8,44.8,42.7,9.2,0.8,72,18,10,30.11,30.11,19,5,21,0.00
2013-4-9,76.6,60.8,47.7,15.5,8.2,2.3,27,13,8,30.11,30.11,19,4,19,0.00
2013-4-10,80.2,66.2,55.4,29.7,10.8,5.1,35,13,7,30.11,30.11,10,3,10,0.00
2013-4-11,71.8,58.2,47.8,32.2,18.6,6.0,47,25,9,30.11,30.11,10,2,10,0.00
2013-4-12,68.7,55.5,46.9,36.8,21.0,6.7,53,30,10,30.11,30.11,9,2,9,0.00
2013-4-13,68.9,56.0,47.5,33.8,16.4,2.5,53,26,10,30.11,30.11,10,3,10,0.00
2013-4-14,67.5,54.1,44.8,31.3,8.8,-0.2,49,18,10,30.11,30.11,14,3,14,0.00
2013-4-15,59.7,49.8,43.2,38.9,13.6,-0.2,69,28,12,30.11,30.11,17,4,17,0.00
2013-4-16,68.5,53.2,41.4,9.7,4.8,-0.6,23,14,10,30.11,30.11,12,3,12,0.00
2013-4-17,69.6,58.6,50.5,10.5,5.9,2.5,14,12,10,30.11,30.11,16,4,16,0.00
2013-4-18,73.2,60.7,50.5,10.9,6.6,2.5,15,12,9,30.11,30.11,9,2,9,0.00
2013-4-19,70.5,60.0,48.2,25.7,13.2,2.5,40,18,9,30.11,30.11,10,2,10,0.00
2013-4-20,77.4,62.8,52.2,19.2,8.5,3.7,27,12,8,30.11,30.11,11,3,11,0.00
2013-4-21,82.0,66.3,51.1,26.8,11.3,3.9,37,13,7,30.11,30.11,8,2,8,0.00
2013-4-22,84.9,69.9,61.3,12.3,8.9,6.3,11,9,6,30.11,30.11,6,2,6,0.00
2013-4-23,77.5,62.4,48.7,33.4,12.4,6.0,54,17,8,30.11,30.11,10,3,10,0.00
2013-4-24,59.4,52.3,47.3,41.5,29.6,16.2,67,44,19,30.11,30.11,14,4,14,0.00
2013-4-25,61.0,54.0,49.6,37.4,28.9,14.4,57,40,16,30.11,30.11,13,5,13,0.00
2013-4-26,62.8,53.6,49.3,34.2,26.9,11.1,55,38,13,30.11,30.11,9,4,9,0.00
2013-4-27,65.1,54.2,48.4,41.6,29.2,11.1,71,44,13,30.11,30.11,9,3,9,0.00
2013-4-28,78.1,62.5,48.9,45.4,22.5,2.8,71,32,8,30.11,30.11,6,2,6,0.00
2013-4-29,79.0,69.0,58.5,16.4,9.6,6.0,17,10,7,30.11,30.11,8,2,8,0.00
2013-4-30,75.6,63.9,52.3,33.2,16.9,6.7,46,20,8,30.11,30.11,9,2,9,0.00
2013-5-1,81.1,69.1,58.8,12.4,8.9,6.0,14,10,7,30.11,30.11,11,3,11,0.00
2013-5-2,91.2,73.7,61.5,12.5,9.5,6.5,11,9,5,30.11,30.11,12,2,12,0.00
2013-5-3,83.5,70.0,58.1,12.4,9.0,5.8,12,9,6,30.11,30.11,7,1,7,0.00
2013-5-4,74.1,61.8,53.2,39.9,17.0,5.2,60,23,8,30.11,30.11,17,3,17,0.00
2013-5-5,66.2,57.9,53.2,30.5,20.7,6.7,39,25,10,30.11,30.11,9,2,9,0.00
2013-5-6,68.0,59.3,53.8,34.2,24.4,6.7,45,29,10,30.11,30.11,10,3,10,0.00
2013-5-7,68.2,59.2,54.0,44.5,29.7,9.4,69,36,12,30.11,30.11,10,3,10,0.00
2013-5-8,61.0,54.7,51.8,47.3,35.5,23.0,79,51,24,30.11,30.11,11,4,11,0.00
2013-5-9,63.5,55.3,51.1,36.0,29.0,15.4,56,39,16,30.11,30.11,11,4,11,0.00
2013-5-10,62.8,55.3,50.5,49.2,35.3,24.1,77,51,24,30.11,30.11,10,4,10,0.00
2013-5-11,73.0,58.7,52.0,51.6,32.8,8.6,77,46,9,30.11,30.11,8,2,8,0.00
2013-5-12,69.4,59.8,52.0,50.6,32.0,12.3,72,41,12,30.11,30.11,8,2,8,0.00
2013-5-13,71.4,60.3,52.0,46.1,29.2,12.1,72,38,12,30.11,30.11,9,3,9,0.00
2013-5-14,68.2,58.7,50.9,40.8,22.4,6.1,61,30,10,30.11,30.11,12,4,12,0.00
2013-5-15,66.6,56.7,48.9,33.6,22.7,6.7,53,31,10,30.11,30.11,13,4,13,0.00
2013-5-16,65.1,57.5,52.9,44.5,32.3,15.8,65,41,15,30.11,30.11,12,4,12,0.00
2013-5-17,67.1,56.6,49.5,38.5,22.5,6.0,56,31,10,30.11,30.11,12,3,12,0.00
2013-5-18,74.7,60.0,48.6,42.2,21.8,7.4,64,30,8,30.11,30.11,12,3,12,0.00
2013-5-19,77.5,64.4,52.0,30.4,14.7,6.0,42,18,8,30.11,30.11,9,2,9,0.00
2013-5-20,81.1,65.9,51.6,32.3,13.2,0.3,46,16,7,30.11,30.11,8,2,8,0.00
2013-5-21,70.2,58.1,50.5,36.3,17.0,3.0,56,25,9,30.11,30.11,15,4,15,0.00
2013-5-22,67.1,54.9,45.0,16.6,5.5,-0.2,27,14,10,30.11,30.11,15,4,15,0.00
2013-5-23,66.9,55.7,44.8,23.6,11.4,3.7,40,19,10,30.11,30.11,10,2,10,0.00
2013-5-24,66.4,56.1,47.5,34.4,16.6,5.1,51,25,10,30.11,30.11,11,3,11,0.00
2013-5-25,66.2,55.7,47.7,33.9,20.5,6.0,54,30,10,30.11,30.11,11,4,11,0.00
2013-5-26,64.6,57.5,51.8,49.5,32.8,19.4,77,43,18,30.11,30.11,10,4,10,0.00
2013-5-27,61.5,56.0,51.4,50.4,39.8,28.8,78,55,29,30.11,30.11,10,3,10,0.04
2013-5-28,70.0,60.9,54.9,62.0,38.9,12.7,90,54,12,30.11,30.11,9,2,9,0.04
2013-5-29,71.4,59.6,53.6,43.4,27.3,6.0,59,35,9,30.11,30.11,11,3,11,0.00
2013-5-30,73.6,60.7,49.6,38.8,18.5,6.0,55,25,8,30.11,30.11,10,2,10,0.00
2013-5-31,78.8,64.1,50.5,31.2,17.8,6.7,42,20,8,30.11,30.11,10,1,10,0.00
2013-6-1,81.5,68.0,53.1,30.2,16.0,6.7,38,16,7,30.11,30.11,6,1,6,0.00
2013-6-2,69.1,59.4,52.3,39.3,25.1,11.7,59,31,12,30.11,30.11,90,3,90,0.00
2013-6-3,62.6,56.6,53.1,44.7,33.8,20.8,69,45,21,30.11,30.11,14,5,14,0.00
2013-6-4,60.4,55.2,53.2,43.1,35.5,26.3,67,49,28,30.11,30.11,13,6,13,0.00
2013-6-5,61.2,54.8,51.8,46.7,34.0,23.2,80,48,24,30.11,30.11,13,5,13,0.00
2013-6-6,65.3,56.3,51.8,55.3,38.5,15.5,92,60,15,30.11,30.11,10,5,10,0.00
2013-6-7,81.1,63.4,53.4,57.0,31.1,8.5,85,44,7,30.11,30.11,8,2,8,0.00
2013-6-8,68.0,59.2,53.6,50.6,33.7,17.2,80,42,15,30.11,30.11,14,3,14,0.00
2013-6-9,59.4,57.0,56.3,56.3,48.7,32.8,94,76,38,30.11,30.11,17,7,17,0.00
2013-6-10,65.5,58.6,54.0,52.8,34.5,12.9,87,46,13,30.11,30.11,15,5,15,0.00
2013-6-11,68.7,59.8,54.1,38.8,27.7,11.7,52,33,12,30.11,30.11,9,2,9,0.00
2013-6-12,76.1,61.4,50.5,38.9,21.3,6.7,55,27,8,30.11,30.11,10,3,10,0.00
2013-6-13,77.4,62.3,48.7,34.7,18.1,6.7,49,23,8,30.11,30.11,8,2,8,0.00
2013-6-14,76.1,63.7,52.5,33.0,15.8,6.7,47,18,8,30.11,30.11,9,3,9,0.00
2013-6-15,63.7,55.0,51.1,39.7,31.3,15.8,62,43,16,30.11,30.11,13,4,13,0.00
2013-6-16,70.9,60.1,51.4,44.9,26.2,8.3,68,34,9,30.11,30.02,9,3,9,0.00
2013-6-17,74.8,61.1,52.7,46.0,28.4,8.7,71,36,9,30.05,29.99,10,4,10,0.00
2013-6-18,67.8,59.9,53.6,46.5,25.6,6.7,71,34,10,29.99,29.93,15,4,15,0.00
2013-6-19,74.1,61.0,50.4,28.9,15.9,5.8,41,21,8,30.02,29.93,13,3,13,0.00
2013-6-20,76.3,62.4,51.1,33.7,16.5,6.0,43,20,8,29.99,29.90,12,2,12,0.00
2013-6-21,73.8,62.3,50.4,36.3,19.7,6.7,49,24,8,29.93,29.87,10,2,10,0.00
2013-6-22,76.8,63.5,53.1,37.2,21.5,8.5,47,24,8,29.90,29.81,8,2,8,0.00
2013-6-23,62.2,58.8,55.4,56.2,52.1,37.0,86,79,47,29.84,29.78,10,3,10,0.00
2013-6-24,60.8,58.3,56.3,57.0,54.6,52.6,92,87,84,29.87,29.75,8,2,8,0.08
2013-6-25,70.3,63.9,59.9,65.9,58.2,47.7,90,82,54,29.96,29.84,10,2,10,0.47
2013-6-26,76.6,67.7,61.3,64.6,42.3,14.9,84,50,10,30.02,29.93,8,1,8,0.00
2013-6-27,84.6,70.4,58.6,55.5,28.1,8.5,71,30,6,30.08,30.02,6,1,6,0.00
2013-6-28,81.3,70.4,61.2,41.2,24.8,8.6,44,21,7,30.02,29.93,6,2,6,0.00
2013-6-29,82.8,72.2,63.9,31.9,14.9,8.6,30,12,6,29.93,29.81,7,1,7,0.00
2013-6-30,77.5,66.4,57.9,41.3,27.3,14.2,47,26,10,29.84,29.78,8,2,8,0.00
2013-7-1,81.0,66.8,57.0,48.8,28.1,8.6,59,30,7,29.87,29.78,8,2,8,0.00
2013-7-2,74.3,61.7,57.6,52.8,38.4,14.8,81,47,11,29.96,29.84,11,4,11,0.00
2013-7-3,81.1,66.0,58.6,65.2,36.3,8.6,90,49,7,29.93,29.78,10,2,10,0.00
2013-7-4,75.6,67.5,59.0,50.8,24.8,8.5,57,24,9,29.81,29.69,9,2,9,0.00
2013-7-5,66.9,58.8,54.1,38.4,28.7,12.1,54,34,12,29.78,29.69,15,5,15,0.00
2013-7-6,63.5,57.2,54.1,45.6,34.7,24.8,70,45,23,29.81,29.75,13,5,13,0.00
2013-7-7,66.6,59.0,54.7,47.2,34.6,16.8,72,44,15,29.84,29.75,10,4,10,0.00
2013-7-8,69.1,59.7,55.2,47.2,34.2,14.1,73,43,12,29.96,29.84,9,4,9,0.00
2013-7-9,75.9,62.5,54.7,60.4,33.4,8.5,83,46,8,29.99,29.93,8,2,8,0.00
2013-7-10,67.6,58.3,54.3,54.9,38.7,17.2,83,54,15,29.96,29.90,13,4,13,0.00
2013-7-11,62.2,56.1,52.9,53.2,40.1,24.8,88,60,25,29.93,29.84,11,5,11,0.00
2013-7-12,64.0,57.4,53.8,40.5,33.8,22.6,56,43,21,29.93,29.84,10,4,10,0.00
2013-7-13,68.9,59.2,53.1,47.7,32.0,12.1,72,41,12,29.96,29.84,9,3,9,0.00
2013-7-14,65.1,57.6,54.0,46.2,36.6,19.9,72,50,18,29.99,29.87,10,4,10,0.00
2013-7-15,60.6,55.4,52.2,52.6,42.0,28.6,90,64,30,29.90,29.78,14,5,14,0.00
2013-7-16,63.0,57.6,54.3,46.7,36.9,27.0,71,47,26,29.99,29.84,13,5,13,0.00
2013-7-17,67.5,59.8,55.6,45.5,35.4,20.3,68,43,17,30.05,29.96,10,4,10,0.00
2013-7-18,68.5,59.4,54.5,51.8,37.0,17.6,78,49,15,30.02,29.90,8,4,8,0.00
2013-7-19,69.1,59.3,54.5,48.5,36.0,13.8,73,47,15,29.93,29.81,9,4,9,0.00
2013-7-20,67.5,58.1,54.1,51.8,37.4,16.9,81,52,15,29.81,29.75,9,4,9,0.00
2013-7-21,63.5,56.9,54.1,51.7,42.3,25.3,84,63,24,29.84,29.72,11,5,11,0.00
2013-7-22,66.9,58.9,55.0,64.3,49.8,30.1,94,75,28,29.93,29.84,9,4,9,0.00
2013-7-23,68.9,62.0,57.0,57.7,39.8,27.0,81,49,22,29.99,29.90,9,2,9,0.00
2013-7-24,70.5,62.0,56.7,58.5,37.3,14.6,82,48,12,29.96,29.90,11,3,11,0.00
2013-7-25,67.1,59.0,54.5,52.5,38.7,20.1,81,53,17,29.99,29.90,10,4,10,0.00
2013-7-26,66.2,58.5,54.9,56.4,42.9,26.9,89,61,23,30.08,29.99,10,4,10,0.00
2013-7-27,60.4,57.3,55.8,58.1,48.7,34.1,93,75,38,30.02,29.87,10,5,10,0.00
2013-7-28,59.4,56.4,54.7,57.2,48.5,33.1,94,77,39,29.87,29.81,14,6,14,0.00
2013-7-29,60.3,56.9,55.4,50.0,40.1,31.4,81,55,35,29.96,29.78,15,7,15,0.00
2013-7-30,64.0,57.4,54.3,48.0,39.1,25.5,77,53,24,30.05,29.96,13,5,13,0.00
2013-7-31,65.1,58.5,54.0,51.2,37.4,19.4,85,52,18,30.05,29.96,12,5,12,0.00
2013-8-1,66.7,59.2,54.7,41.6,30.4,16.1,60,37,15,30.02,29.93,11,4,11,0.00
2013-8-2,66.9,59.1,54.3,45.6,31.8,16.5,67,39,15,29.96,29.87,10,3,10,0.00
2013-8-3,64.0,57.4,53.8,48.8,38.2,25.3,74,52,24,29.96,29.87,10,4,10,0.00
2013-8-4,62.4,56.8,54.3,54.1,41.3,24.3,89,61,24,29.99,29.90,11,4,11,0.00
2013-8-5,63.0,56.9,53.6,51.8,40.9,23.8,83,60,24,29.99,29.93,11,4,11,0.00
2013-8-6,63.7,57.9,54.3,51.1,39.9,22.6,81,55,21,29.99,29.93,12,5,12,0.00
2013-8-7,64.6,59.5,56.7,52.0,41.1,25.8,80,54,24,30.05,29.99,12,5,12,0.00
2013-8-8,67.8,60.9,55.4,58.5,38.8,12.1,82,52,12,29.99,29.90,11,3,11,0.00
2013-8-9,65.5,58.6,54.9,51.8,40.0,22.8,80,54,23,29.99,29.87,11,4,11,0.00
2013-8-10,66.7,59.9,56.7,47.4,38.4,16.8,68,48,17,30.02,29.96,12,4,12,0.00
2013-8-11,59.2,59.2,59.2,47.4,47.4,47.4,65,65,65,30.02,29.93,9,3,9,0.00
2013-8-12,63.1,58.7,56.3,47.4,45.1,26.0,65,61,25,29.96,29.90,8,3,8,0.00
2013-8-13,77.7,63.7,56.3,46.6,28.9,8.5,62,34,8,29.96,29.90,8,2,8,0.00
2013-8-14,73.0,62.8,55.8,48.1,32.7,14.2,63,37,11,29.96,29.90,9,3,9,0.00
2013-8-15,76.3,66.7,61.7,57.1,41.8,21.2,75,46,13,29.96,29.90,9,3,9,0.00
2013-8-16,73.9,65.6,59.0,61.1,40.3,14.6,79,47,11,29.99,29.93,8,2,8,0.00
2013-8-17,75.9,63.8,57.6,47.7,34.2,14.4,60,38,10,29.99,29.87,10,3,10,0.00
2013-8-18,82.0,69.3,59.2,54.3,29.1,8.5,71,33,7,29.90,29.81,7,2,7,0.00
2013-8-19,71.4,63.9,58.1,51.4,34.0,15.2,73,37,12,29.90,29.78,11,3,11,0.00
2013-8-20,67.6,60.8,57.7,58.2,44.5,24.7,87,60,20,29.90,29.84,11,4,11,0.00
2013-8-21,68.5,60.7,57.4,47.6,34.0,12.8,68,42,12,29.93,29.87,10,4,10,0.00
2013-8-22,67.5,60.6,56.8,42.6,31.4,16.8,57,36,15,29.96,29.87,11,5,11,0.00
2013-8-23,68.0,60.5,56.3,45.8,34.3,18.4,66,41,15,29.93,29.81,10,4,10,0.00
2013-8-24,71.4,62.1,56.8,50.1,37.3,14.9,73,44,12,29.87,29.81,12,4,12,0.00
2013-8-25,72.5,65.1,60.8,56.4,41.6,29.9,71,46,21,29.93,29.87,11,3,11,0.00
2013-8-26,72.1,63.7,58.6,51.2,33.6,13.9,71,38,11,29.99,29.87,9,3,9,0.00
2013-8-27,72.0,63.1,55.9,49.9,35.4,15.2,64,39,12,29.90,29.81,9,2,9,0.00
2013-8-28,73.6,65.0,59.9,53.3,42.9,27.4,73,50,18,29.93,29.84,9,3,9,0.00
2013-8-29,75.0,66.0,61.2,62.8,43.5,19.8,82,51,13,30.05,29.93,9,2,9,0.00
2013-8-30,81.9,69.0,60.6,58.0,33.4,9.0,70,35,7,30.05,29.93,7,2,7,0.00
2013-8-31,70.9,63.4,58.1,53.1,37.1,23.8,71,41,19,29.99,29.90,10,3,10,0.00
2013-9-1,70.9,63.4,57.9,48.0,38.2,22.2,64,42,17,29.96,29.87,8,3,8,0.00
2013-9-2,73.9,65.9,61.3,57.9,43.4,27.4,75,48,18,29.96,29.87,10,2,10,0.00
2013-9-3,73.0,65.0,58.6,54.1,36.9,14.9,72,42,12,30.02,29.93,9,2,9,0.00
2013-9-4,78.3,66.1,59.2,52.8,34.2,9.9,70,40,8,30.02,29.93,11,2,11,0.00
2013-9-5,79.0,66.2,58.5,48.5,26.9,8.5,63,30,8,30.02,29.96,12,3,12,0.00
2013-9-6,89.6,71.7,56.8,38.8,21.6,8.6,49,21,5,29.99,29.84,10,2,10,0.00
2013-9-7,88.5,72.1,56.8,38.2,13.8,6.9,48,13,5,29.90,29.84,8,1,8,0.00
2013-9-8,76.8,63.6,57.2,58.6,33.8,8.6,73,40,8,29.87,29.78,8,1,8,0.00
2013-9-9,74.8,62.8,55.0,56.5,36.8,8.6,71,45,8,29.81,29.72,8,2,8,0.00
2013-9-10,66.2,61.8,59.0,60.1,48.1,33.0,87,64,30,29.87,29.75,15,6,15,0.00
2013-9-11,68.7,63.2,61.0,49.1,36.9,27.8,62,39,22,29.99,29.87,12,6,12,0.00
2013-9-12,70.2,63.3,59.2,57.6,45.5,28.7,79,56,22,29.96,29.87,9,3,9,0.00
2013-9-13,70.9,62.0,57.2,53.4,38.5,15.4,78,49,12,29.90,29.75,10,3,10,0.00
2013-9-14,71.6,60.8,56.7,52.8,38.6,15.6,78,50,14,29.81,29.72,11,4,11,0.00
2013-9-15,71.6,62.6,55.6,46.0,32.3,14.2,57,37,11,29.87,29.75,9,3,9,0.00
2013-9-16,77.2,65.0,58.1,56.5,36.2,8.6,76,43,8,29.90,29.78,8,3,8,0.00
2013-9-17,72.9,63.4,57.6,48.0,25.9,7.4,64,31,9,29.87,29.78,14,3,14,0.00
2013-9-18,77.4,65.2,56.7,30.3,15.9,6.0,35,17,8,29.90,29.84,8,2,8,0.00
2013-9-19,81.5,65.4,55.8,29.2,17.5,8.1,36,18,7,29.84,29.75,6,1,6,0.00
2013-9-20,68.0,60.7,52.5,47.6,38.5,29.2,65,45,25,29.84,29.75,10,3,10,0.00
2013-9-21,65.1,61.6,56.5,56.3,41.8,25.7,77,50,27,29.87,29.78,11,3,11,0.79
2013-9-22,70.2,61.0,54.5,48.1,28.6,7.9,70,35,9,29.99,29.87,9,2,9,0.00
2013-9-23,77.7,65.2,56.7,38.8,23.3,8.6,45,23,8,29.99,29.90,8,2,8,0.00
2013-9-24,73.6,62.9,57.4,42.9,24.6,6.7,56,29,8,29.99,29.87,13,3,13,0.00
2013-9-25,69.4,59.7,53.4,21.9,12.0,5.6,28,16,10,29.93,29.81,14,4,14,0.00
2013-9-26,72.3,60.4,49.1,19.5,9.7,4.6,30,14,9,29.96,29.81,11,3,11,0.00
2013-9-27,76.1,64.3,55.4,11.1,7.4,3.7,12,11,8,30.08,29.93,8,2,8,0.00
2013-9-28,77.7,63.8,54.0,35.0,11.4,3.7,41,14,8,30.05,29.99,8,1,8,0.00
2013-9-29,72.3,63.3,56.8,49.4,36.7,14.8,61,40,11,30.08,30.02,9,2,9,0.00
2013-9-30,70.3,63.8,56.5,61.8,48.8,18.0,83,61,25,30.05,29.93,10,2,10,0.00
2013-10-1,71.4,60.1,51.3,36.0,17.2,6.0,46,22,9,29.99,29.90,8,1,8,0.00
2013-10-2,71.6,61.2,54.0,36.6,15.4,4.8,42,18,9,29.99,29.90,9,2,9,0.00
2013-10-3,73.2,62.0,50.7,11.1,7.3,2.8,16,11,9,30.05,29.90,15,4,15,0.00
2013-10-4,79.0,68.6,60.3,12.4,8.9,6.0,12,10,7,30.05,29.90,17,3,17,0.00
2013-10-5,85.5,71.5,63.7,12.4,9.1,6.7,11,9,6,30.14,30.05,12,3,12,0.00
2013-10-6,85.5,70.6,60.4,12.4,9.0,6.0,12,9,6,30.08,29.96,9,2,9,0.00
2013-10-7,76.3,65.7,54.3,22.8,9.3,5.8,29,11,8,29.96,29.81,8,2,8,0.00
2013-10-8,69.4,57.9,50.9,30.0,19.4,6.4,43,25,10,29.84,29.66,8,1,8,0.00
2013-10-9,66.6,57.3,48.9,33.5,16.9,3.9,48,25,10,29.69,29.57,9,2,9,0.00
2013-10-10,61.9,55.0,51.3,35.6,25.2,3.7,53,33,12,29.93,29.69,10,2,10,0.00
2013-10-11,62.1,54.0,50.2,40.9,30.6,11.2,65,45,14,30.02,29.93,8,2,8,0.00
2013-10-12,62.2,53.9,48.9,47.5,31.0,15.6,70,45,19,29.96,29.84,10,2,10,0.00
2013-10-13,70.2,58.4,50.0,37.3,18.0,3.7,46,24,9,29.99,29.84,8,2,8,0.00
2013-10-14,78.1,63.9,52.7,12.0,7.3,3.2,13,11,8,30.05,29.96,10,2,10,0.00
2013-10-15,79.9,66.7,55.8,12.4,8.1,3.9,12,10,7,29.99,29.90,12,3,12,0.00
2013-10-16,81.7,68.4,58.1,12.4,8.6,5.8,12,10,7,30.02,29.93,10,2,10,0.00
2013-10-17,80.1,65.9,52.5,22.8,8.7,3.7,31,11,7,30.02,29.90,8,1,8,0.00
2013-10-18,75.2,60.1,49.1,30.7,15.1,3.1,46,20,8,29.99,29.90,6,1,6,0.00
2013-10-19,78.8,63.3,50.4,24.6,8.8,3.7,36,12,8,30.02,29.93,6,1,6,0.00
2013-10-20,68.5,55.8,46.8,35.5,25.3,9.0,55,34,10,29.96,29.84,6,1,6,0.00
2013-10-21,63.3,54.2,49.3,47.4,32.9,15.1,75,50,16,29.96,29.87,8,1,8,0.00
2013-10-22,67.1,54.2,49.3,52.3,34.1,12.1,74,51,12,29.96,29.87,6,1,6,0.00
2013-10-23,64.2,53.3,49.6,53.7,37.7,18.2,77,59,18,29.93,29.84,8,2,8,0.00
2013-10-24,59.7,52.5,50.0,44.3,35.4,17.1,78,56,22,30.02,29.90,10,3,10,0.00
2013-10-25,67.6,56.5,48.9,42.7,26.8,11.1,65,37,12,30.11,30.02,7,1,7,0.00
2013-10-26,74.7,58.7,49.6,43.6,22.3,3.9,58,31,8,30.08,29.96,6,0,6,0.00
2013-10-27,57.9,52.3,50.0,46.6,33.9,21.1,78,52,24,29.96,29.63,14,5,14,0.00
2013-10-28,61.0,53.1,46.6,33.5,23.1,6.0,48,34,11,29.78,29.60,10,3,10,0.00
2013-10-29,60.6,53.8,48.7,33.9,24.0,6.1,49,34,12,29.99,29.78,9,2,9,0.00
2013-10-30,65.1,54.3,47.7,43.3,21.6,3.4,59,33,10,30.08,29.96,10,2,10,0.00
2013-10-31,70.9,58.2,48.0,29.8,9.8,1.7,38,16,9,30.11,29.99,6,1,6,0.00
2013-11-1,73.9,62.3,51.6,11.3,7.7,3.7,18,12,8,30.05,29.93,10,2,10,0.00
2013-11-2,65.7,56.9,50.5,40.1,21.1,3.7,51,28,11,29.96,29.84,8,1,8,0.00
2013-11-3,63.9,53.0,45.5,20.0,8.9,2.3,29,18,11,29.99,29.87,9,3,9,0.00
2013-11-4,69.3,55.5,44.8,15.2,7.5,1.0,28,15,10,30.02,29.84,12,4,12,0.00
2013-11-5,72.1,60.7,50.2,10.7,6.6,2.5,14,11,9,30.16,30.02,10,2,10,0.00
2013-11-6,71.2,62.2,55.0,10.7,7.1,3.7,13,11,9,30.19,30.08,11,3,11,0.00
2013-11-7,72.0,61.4,52.5,25.7,9.7,3.7,35,14,9,30.11,29.99,6,1,6,0.00
2013-11-8,70.3,57.9,48.7,32.1,21.5,6.7,45,28,9,30.02,29.90,6,1,6,0.00
2013-11-9,71.2,57.4,47.7,35.3,17.7,4.5,53,25,9,29.99,29.90,11,2,11,0.00
2013-11-10,61.9,54.4,50.5,40.7,30.9,14.4,60,43,16,30.05,29.96,8,2,8,0.00
2013-11-11,64.2,55.9,49.3,42.2,27.8,8.4,58,37,14,30.11,29.99,8,1,8,0.00
2013-11-12,70.0,60.4,55.9,29.0,15.1,6.0,34,18,9,30.22,30.08,8,2,8,0.00
2013-11-13,72.3,58.6,52.2,39.5,24.8,8.2,59,30,9,30.19,30.05,6,1,6,0.00
2013-11-14,63.1,55.0,50.0,53.5,35.6,3.5,78,51,13,30.05,29.84,8,1,8,0.00
2013-11-15,62.4,53.3,47.5,27.8,10.0,2.5,44,19,11,29.84,29.66,8,2,8,0.00
2013-11-16,63.1,53.2,47.3,34.1,23.5,4.9,54,36,11,29.87,29.72,9,2,9,0.00
2013-11-17,61.0,52.6,48.2,38.2,27.9,7.0,60,42,12,30.02,29.87,8,2,8,0.00
2013-11-18,57.6,51.3,46.8,39.0,29.7,18.0,62,45,22,30.08,30.02,10,2,10,0.00
2013-11-19,57.7,55.2,51.6,49.5,36.7,26.1,74,51,31,30.05,29.87,9,2,9,0.63
2013-11-20,59.2,56.9,52.3,52.7,50.5,46.4,82,79,74,29.90,29.78,10,1,10,0.75
2013-11-21,60.4,55.3,50.9,47.6,22.0,3.7,81,39,12,29.90,29.81,23,3,23,0.04
2013-11-22,69.6,60.6,52.7,10.7,6.5,3.2,13,11,10,29.96,29.81,24,5,24,0.00
2013-11-23,66.2,55.6,50.0,29.8,8.3,2.5,44,16,10,30.02,29.87,17,3,17,0.00
2013-11-24,61.9,53.1,47.1,36.1,16.4,2.5,55,28,11,30.16,30.02,6,1,6,0.00
2013-11-25,65.5,53.6,45.3,19.3,8.3,2.1,34,17,10,30.22,30.14,8,2,9,0.00
2013-11-26,61.3,54.3,50.0,7.8,5.4,2.5,16,14,11,30.16,29.96,13,4,13,0.00
2013-11-27,61.9,55.2,50.4,18.2,8.8,3.7,27,16,11,29.96,29.75,10,4,10,0.00
2013-11-28,70.0,59.6,54.1,10.7,6.1,3.7,13,12,9,29.96,29.78,10,3,10,0.00
2013-11-29,68.0,57.8,51.1,9.8,5.7,-0.0,16,12,10,30.11,29.96,8,1,8,0.00
2013-11-30,66.2,56.1,49.1,23.4,10.9,2.5,31,17,10,30.19,30.11,6,1,6,0.00
2013-12-1,69.4,58.3,49.8,25.0,10.9,3.7,32,16,10,30.25,30.14,7,1,7,0.00
2013-12-2,63.0,53.8,46.0,45.2,24.7,4.0,66,35,13,30.14,29.87,8,2,8,0.00
2013-12-3,56.1,48.4,39.9,41.1,7.4,-5.5,57,20,12,29.87,29.75,14,3,14,0.00
2013-12-4,52.5,41.9,35.6,9.4,-2.2,-8.9,31,15,11,29.99,29.84,10,2,10,0.00
2013-12-5,50.4,40.9,32.9,3.0,-4.1,-10.8,21,14,12,30.05,29.96,8,2,8,0.00
2013-12-6,50.5,43.8,35.4,42.9,11.6,-4.2,75,31,14,30.08,29.78,21,3,21,0.35
2013-12-7,48.4,40.8,35.1,39.8,5.7,-6.1,72,26,12,30.11,29.81,15,3,15,0.00
2013-12-8,43.7,36.7,31.5,8.9,-3.9,-8.9,33,18,13,30.16,30.08,15,4,15,0.00
2013-12-9,48.0,38.9,32.0,1.1,-6.4,-10.6,17,14,12,30.25,30.14,18,4,18,0.00
2013-12-10,52.2,43.0,36.5,4.0,-2.9,-7.9,17,14,12,30.25,30.08,14,4,14,0.00
2013-12-11,54.1,46.8,38.7,4.4,-0.4,-7.5,16,14,12,30.11,30.02,15,4,15,0.00
2013-12-12,61.0,49.6,43.5,7.6,2.2,-3.2,18,14,11,30.14,30.02,10,3,10,0.00
2013-12-13,59.4,48.2,40.5,31.3,12.3,-0.2,50,27,12,30.19,30.08,5,1,5,0.00
2013-12-14,59.7,51.9,44.6,7.0,3.3,-2.9,17,13,12,30.25,30.16,15,3,15,0.00
2013-12-15,62.2,54.3,46.9,7.8,4.0,-3.0,14,13,11,30.22,30.11,13,4,13,0.00
2013-12-16,67.1,59.9,54.1,8.7,6.2,3.7,13,12,10,30.11,29.99,14,4,14,0.00
2013-12-17,66.7,59.3,52.5,8.5,6.2,3.1,13,12,10,30.05,29.90,11,4,11,0.00
2013-12-18,58.8,52.5,47.7,31.6,16.6,2.5,52,28,12,29.93,29.66,10,2,10,0.00
2013-12-19,59.9,50.0,42.8,31.4,9.1,-2.5,52,21,12,29.84,29.60,12,3,12,0.00
2013-12-20,59.9,50.6,41.5,7.2,1.3,-5.6,14,13,12,29.90,29.81,8,2,8,0.00
2013-12-21,62.4,52.9,45.3,31.0,15.3,-3.6,47,25,11,29.96,29.84,8,1,8,0.00
2013-12-22,63.7,55.1,47.5,25.4,7.3,0.7,39,15,11,30.16,29.96,13,2,13,0.00
2013-12-23,63.1,55.3,48.2,7.8,4.5,1.1,14,13,11,30.25,30.16,10,2,10,0.00
2013-12-24,68.4,57.2,48.7,9.7,5.2,1.7,14,12,10,30.22,30.08,7,1,7,0.00
2013-12-25,64.0,57.3,50.5,8.5,5.4,2.5,14,12,11,30.16,30.08,15,4,15,0.00
2013-12-26,66.2,59.6,52.0,8.6,6.3,2.7,13,12,10,30.14,30.05,13,4,13,0.00
2013-12-27,63.9,55.9,48.6,8.4,4.9,1.4,14,12,11,30.11,30.02,10,3,10,0.00
2013-12-28,66.4,55.5,47.8,8.6,4.5,1.0,14,13,10,30.02,29.93,10,2,10,0.00
2013-12-29,63.9,56.2,50.9,8.4,4.9,2.5,14,12,11,30.05,29.96,22,4,22,0.00
2013-12-30,63.9,53.7,45.7,24.3,6.1,2.0,39,15,11,30.14,30.05,10,1,10,0.00
2013-12-31,63.3,51.9,44.8,22.9,8.5,0.4,41,18,11,30.14,30.02,8,1,8,0.00
2014-1-1,66.9,54.8,45.3,8.6,4.3,-0.2,15,13,10,30.08,29.99,5,1,5,0.00
2014-1-2,66.0,57.7,52.5,8.6,5.4,3.0,13,12,10,30.05,29.93,13,3,13,0.00